Time;durP1;ratioP1;P1;durP2;ratioP2;P2;SDS_P1;SDS_P2;PMS_P1;PMS_P2;Temp;Humidity;BMP_temperature;BMP_pressure;BME280_temperature;BME280_humidity;BME280_pressure;Samples;Min_cycle;Max_cycle;Signal;HPM_P1;HPM_P2
2023/02/11 00:00:13;;;;;;;;;;;29.70;99.90;;;;;;5059332;28;19978;-69
2023/02/11 00:02:43;;;;;;;;;;;29.80;99.90;;;;;;5061292;28;19947;-67
2023/02/11 00:05:09;;;;;;;;;;;29.90;99.90;;;;;;5059881;28;19909;-70
2023/02/11 00:07:36;;;;;;;;;;;30.00;99.90;;;;;;5062394;28;19908;-65
2023/02/11 00:10:03;;;;;;;;;;;30.40;99.90;;;;;;5060400;28;19904;-65
2023/02/11 00:12:29;;;;;;;;;;;30.60;99.90;;;;;;5059766;28;20007;-66
2023/02/11 00:14:56;;;;;;;;;;;30.90;99.60;;;;;;5057013;28;19909;-65
2023/02/11 00:17:22;;;;;;;;;;;31.20;99.30;;;;;;5061205;28;19916;-63
2023/02/11 00:19:49;;;;;;;;;;;31.40;99.40;;;;;;5059669;28;19943;-66
2023/02/11 00:22:15;;;;;;;;;;;31.50;98.20;;;;;;5062022;28;20480;-69
2023/02/11 00:24:42;;;;;;;;;;;31.60;98.30;;;;;;5052296;28;19908;-69
2023/02/11 00:27:08;;;;;;;;;;;31.90;98.10;;;;;;5053295;28;19928;-66
2023/02/11 00:29:36;;;;;;;;;;;32.20;97.50;;;;;;5056795;28;19919;-65
2023/02/11 00:32:04;;;;;;;;;;;32.10;98.10;;;;;;4671213;28;9999998;-62
2023/02/11 00:34:30;;;;;;;;;;;32.50;96.80;;;;;;5054076;28;19946;-63
2023/02/11 00:37:00;;;;;;;;;;;32.60;96.60;;;;;;5054290;28;20383;-66
2023/02/11 00:39:26;;;;;;;;;;;33.00;96.40;;;;;;5053624;28;19916;-63
2023/02/11 00:41:52;;;;;;;;;;;33.20;96.40;;;;;;5056220;28;19936;-73
2023/02/11 00:44:19;;;;;;;;;;;33.40;96.00;;;;;;5051802;28;19920;-63
2023/02/11 00:46:45;;;;;;;;;;;33.60;96.00;;;;;;5035430;28;20474;-66
2023/02/11 00:49:12;;;;;;;;;;;33.80;95.30;;;;;;5051767;28;19917;-73
2023/02/11 00:51:38;;;;;;;;;;;34.00;94.30;;;;;;5050881;28;20028;-62
2023/02/11 00:54:05;;;;;;;;;;;34.00;94.60;;;;;;5051875;28;19912;-68
2023/02/11 00:56:32;;;;;;;;;;;34.20;93.70;;;;;;5051942;28;20347;-61
2023/02/11 00:58:58;;;;;;;;;;;34.40;93.90;;;;;;5052221;28;19971;-63
2023/02/11 01:01:25;;;;;;;;;;;34.50;93.00;;;;;;5051405;28;19923;-66
2023/02/11 01:03:51;;;;;;;;;;;34.50;93.60;;;;;;5051728;28;19924;-64
2023/02/11 01:06:18;;;;;;;;;;;34.60;93.50;;;;;;5053602;28;20259;-63
2023/02/11 01:08:44;;;;;;;;;;;34.80;93.10;;;;;;5052994;28;19909;-64
2023/02/11 01:11:13;;;;;;;;;;;34.80;93.70;;;;;;5051939;28;19908;-63
2023/02/11 01:13:39;;;;;;;;;;;34.70;92.90;;;;;;5050776;28;20268;-63
2023/02/11 01:16:06;;;;;;;;;;;34.80;93.20;;;;;;5051968;28;19959;-68
2023/02/11 01:18:33;;;;;;;;;;;35.20;92.80;;;;;;5051916;28;20454;-74
2023/02/11 01:20:59;;;;;;;;;;;35.40;92.90;;;;;;5051713;28;20007;-69
2023/02/11 01:23:25;;;;;;;;;;;35.90;92.20;;;;;;5052030;28;19920;-70
2023/02/11 01:25:53;;;;;;;;;;;36.20;91.90;;;;;;5053098;28;20019;-69
2023/02/11 01:28:21;;;;;;;;;;;36.10;92.00;;;;;;5053736;28;19908;-62
2023/02/11 01:30:47;;;;;;;;;;;36.60;90.90;;;;;;5051239;28;20373;-60
2023/02/11 01:33:14;;;;;;;;;;;36.90;90.60;;;;;;5051516;28;19924;-63
2023/02/11 01:35:40;;;;;;;;;;;37.10;90.70;;;;;;5051358;28;19913;-61
2023/02/11 01:38:08;;;;;;;;;;;37.20;90.10;;;;;;5053269;28;19908;-62
2023/02/11 01:40:34;;;;;;;;;;;37.60;89.10;;;;;;5053044;28;20327;-61
2023/02/11 01:43:00;;;;;;;;;;;37.30;83.90;;;;;;5052687;28;19912;-64
2023/02/11 01:45:39;;;;;;;;;;;37.20;83.50;;;;;;5051617;28;20214;-61
2023/02/11 01:48:06;;;;;;;;;;;37.20;84.60;;;;;;5052322;28;20387;-61
2023/02/11 01:50:33;;;;;;;;;;;37.10;86.00;;;;;;5052860;28;19912;-61
2023/02/11 01:57:20;;;;;;;;;;;37.40;85.30;;;;;;5051838;28;19948;-64
2023/02/11 01:58:32;;;;;;;;;;;37.60;86.00;;;;;;5050432;28;19919;-62
2023/02/11 02:00:59;;;;;;;;;;;37.90;84.20;;;;;;5052205;28;19923;-62
2023/02/11 02:03:26;;;;;;;;;;;38.20;83.60;;;;;;5051808;28;20660;-63
2023/02/11 02:05:54;;;;;;;;;;;38.40;83.80;;;;;;5050262;28;20438;-64
2023/02/11 02:08:21;;;;;;;;;;;38.80;82.30;;;;;;5051459;28;20373;-64
2023/02/11 02:10:48;;;;;;;;;;;38.70;82.10;;;;;;5050617;28;19904;-63
2023/02/11 02:13:16;;;;;;;;;;;38.80;80.00;;;;;;5051881;28;19917;-65
2023/02/11 02:15:59;;;;;;;;;;;39.10;80.80;;;;;;5051522;28;20017;-64
2023/02/11 02:18:25;;;;;;;;;;;39.30;81.20;;;;;;5049835;28;19917;-66
2023/02/11 02:20:58;;;;;;;;;;;39.20;78.70;;;;;;5051715;28;20418;-65
2023/02/11 02:23:30;;;;;;;;;;;39.00;78.70;;;;;;5051917;28;19939;-63
2023/02/11 02:25:59;;;;;;;;;;;39.20;79.70;;;;;;5052088;28;20123;-65
2023/02/11 02:28:37;;;;;;;;;;;39.60;78.70;;;;;;5051939;28;20419;-65
2023/02/11 02:31:06;;;;;;;;;;;39.60;75.40;;;;;;5033027;28;19916;-62
2023/02/11 02:33:36;;;;;;;;;;;39.50;75.00;;;;;;5051604;28;20003;-63
2023/02/11 02:36:09;;;;;;;;;;;39.60;75.30;;;;;;5051871;28;19974;-66
2023/02/11 02:38:52;;;;;;;;;;;39.70;74.30;;;;;;5051417;28;19927;-63
2023/02/11 02:41:20;;;;;;;;;;;39.70;73.40;;;;;;5051118;28;20378;-64
2023/02/11 02:43:50;;;;;;;;;;;39.70;73.20;;;;;;5050959;28;19967;-64
2023/02/11 02:46:19;;;;;;;;;;;39.90;73.60;;;;;;5051850;28;19912;-63
2023/02/11 02:48:46;;;;;;;;;;;40.10;71.50;;;;;;5050832;28;19967;-63
2023/02/11 02:51:15;;;;;;;;;;;40.00;69.20;;;;;;5049121;28;19924;-65
2023/02/11 02:53:52;;;;;;;;;;;40.10;67.60;;;;;;5030897;28;19924;-67
2023/02/11 02:56:37;;;;;;;;;;;40.30;68.00;;;;;;5051331;28;19913;-68
2023/02/11 02:59:19;;;;;;;;;;;40.30;67.30;;;;;;5050442;28;19920;-63
2023/02/11 03:02:03;;;;;;;;;;;40.60;69.70;;;;;;5051833;28;19912;-65
2023/02/11 03:04:33;;;;;;;;;;;40.70;70.60;;;;;;5051171;28;20015;-64
2023/02/11 03:07:13;;;;;;;;;;;41.00;64.80;;;;;;5033145;28;19909;-66
2023/02/11 03:10:02;;;;;;;;;;;41.00;65.30;;;;;;5051674;28;19916;-63
2023/02/11 03:12:30;;;;;;;;;;;41.20;62.30;;;;;;5041859;28;19909;-67
2023/02/11 03:14:58;;;;;;;;;;;41.10;62.10;;;;;;5052439;28;19994;-65
2023/02/11 03:17:25;;;;;;;;;;;41.40;62.60;;;;;;5051423;28;19969;-64
2023/02/11 03:19:51;;;;;;;;;;;41.40;60.30;;;;;;5051460;28;19939;-65
2023/02/11 03:22:31;;;;;;;;;;;41.40;60.20;;;;;;5051973;28;19916;-66
2023/02/11 03:24:58;;;;;;;;;;;41.70;61.40;;;;;;5055648;28;20035;-66
2023/02/11 03:27:26;;;;;;;;;;;41.90;60.40;;;;;;5055292;28;19909;-67
2023/02/11 03:30:13;;;;;;;;;;;42.20;59.90;;;;;;5057488;28;19912;-65
2023/02/11 03:33:02;;;;;;;;;;;42.20;59.70;;;;;;5059829;28;19917;-65
2023/02/11 03:35:34;;;;;;;;;;;42.30;58.80;;;;;;5039148;28;19912;-65
2023/02/11 03:38:13;;;;;;;;;;;42.50;59.40;;;;;;5054507;28;19924;-66
2023/02/11 03:40:40;;;;;;;;;;;42.60;59.20;;;;;;5055433;28;20317;-64
2023/02/11 03:43:25;;;;;;;;;;;42.60;58.70;;;;;;5035257;28;19916;-62
2023/02/11 03:45:52;;;;;;;;;;;42.80;60.10;;;;;;5055466;28;21141;-63
2023/02/11 03:48:24;;;;;;;;;;;42.80;58.20;;;;;;5054816;28;19912;-64
2023/02/11 03:50:52;;;;;;;;;;;43.00;58.20;;;;;;5054268;28;19912;-66
2023/02/11 03:53:19;;;;;;;;;;;42.80;57.30;;;;;;5054350;28;20386;-66
2023/02/11 03:55:46;;;;;;;;;;;42.70;58.30;;;;;;5054570;28;19908;-66
2023/02/11 03:58:13;;;;;;;;;;;42.60;58.00;;;;;;5055368;28;20015;-67
2023/02/11 04:00:40;;;;;;;;;;;42.20;57.80;;;;;;5053639;28;19921;-68
2023/02/11 04:03:08;;;;;;;;;;;42.60;58.40;;;;;;5055038;28;19927;-69
2023/02/11 04:05:34;;;;;;;;;;;43.00;57.50;;;;;;5053701;28;19913;-65
2023/02/11 04:08:01;;;;;;;;;;;43.30;57.20;;;;;;5053722;28;19908;-66
2023/02/11 04:10:27;;;;;;;;;;;43.20;56.20;;;;;;5054973;28;19912;-68
2023/02/11 04:12:53;;;;;;;;;;;42.90;56.10;;;;;;5056243;28;19916;-64
2023/02/11 04:15:20;;;;;;;;;;;42.70;56.60;;;;;;5053942;28;19917;-66
2023/02/11 04:17:46;;;;;;;;;;;42.80;55.90;;;;;;5055041;28;20765;-65
2023/02/11 04:20:12;;;;;;;;;;;43.00;56.30;;;;;;5054029;28;19912;-65
2023/02/11 04:22:39;;;;;;;;;;;43.20;54.70;;;;;;5052382;28;20384;-64
2023/02/11 04:25:06;;;;;;;;;;;43.00;55.60;;;;;;5055307;28;19940;-62
2023/02/11 04:27:32;;;;;;;;;;;42.90;55.50;;;;;;5053796;28;19921;-63
2023/02/11 04:29:58;;;;;;;;;;;42.60;54.90;;;;;;5053339;28;19995;-63
2023/02/11 04:32:25;;;;;;;;;;;42.50;53.90;;;;;;5052438;28;19986;-62
2023/02/11 04:34:53;;;;;;;;;;;42.40;55.30;;;;;;5054507;28;20480;-64
2023/02/11 04:37:19;;;;;;;;;;;42.30;55.90;;;;;;5054563;28;19923;-65
2023/02/11 04:39:45;;;;;;;;;;;42.20;54.70;;;;;;5052788;28;20397;-62
2023/02/11 04:42:12;;;;;;;;;;;42.40;55.70;;;;;;5052791;28;19913;-67
2023/02/11 04:44:38;;;;;;;;;;;42.80;55.10;;;;;;5053331;28;19927;-69
2023/02/11 04:47:04;;;;;;;;;;;42.90;54.80;;;;;;5054148;28;20470;-68
2023/02/11 04:49:31;;;;;;;;;;;42.80;55.50;;;;;;5054324;28;19913;-67
2023/02/11 04:51:57;;;;;;;;;;;43.10;56.60;;;;;;5035859;28;19904;-66
2023/02/11 04:54:23;;;;;;;;;;;43.40;55.90;;;;;;5051608;28;19960;-68
2023/02/11 04:56:50;;;;;;;;;;;43.30;55.80;;;;;;5052882;28;19908;-69
2023/02/11 04:59:16;;;;;;;;;;;43.10;54.00;;;;;;5051830;28;20275;-66
2023/02/11 05:01:43;;;;;;;;;;;43.00;54.50;;;;;;5051836;28;19944;-64
2023/02/11 05:04:09;;;;;;;;;;;43.50;56.30;;;;;;5053307;28;20451;-65
2023/02/11 05:06:37;;;;;;;;;;;43.60;54.90;;;;;;5051632;28;19924;-70
2023/02/11 05:09:03;;;;;;;;;;;43.60;55.20;;;;;;5051721;28;19917;-65
2023/02/11 05:11:30;;;;;;;;;;;43.50;55.30;;;;;;5053073;28;20253;-65
2023/02/11 05:13:56;;;;;;;;;;;43.70;56.50;;;;;;5053284;28;19966;-62
2023/02/11 05:16:23;;;;;;;;;;;43.50;54.40;;;;;;5053097;28;19934;-62
2023/02/11 05:18:49;;;;;;;;;;;43.30;54.80;;;;;;5051968;28;20379;-64
2023/02/11 05:21:17;;;;;;;;;;;43.50;55.10;;;;;;5053932;28;20400;-64
2023/02/11 05:23:44;;;;;;;;;;;43.20;54.80;;;;;;5052910;28;19993;-66
2023/02/11 05:26:11;;;;;;;;;;;43.60;54.50;;;;;;5053391;28;20004;-63
2023/02/11 05:28:38;;;;;;;;;;;43.50;54.30;;;;;;5053422;28;19923;-61
2023/02/11 05:31:04;;;;;;;;;;;43.30;54.50;;;;;;5051341;28;19912;-64
2023/02/11 05:33:31;;;;;;;;;;;43.60;54.70;;;;;;5053480;28;19923;-63
2023/02/11 05:35:58;;;;;;;;;;;43.00;54.40;;;;;;5053919;28;19931;-63
2023/02/11 05:38:25;;;;;;;;;;;43.20;54.50;;;;;;5050731;28;19912;-62
2023/02/11 05:40:51;;;;;;;;;;;43.50;53.90;;;;;;5050871;28;19908;-66
2023/02/11 05:43:17;;;;;;;;;;;43.50;53.40;;;;;;5049862;28;19920;-63
2023/02/11 05:45:44;;;;;;;;;;;43.50;53.40;;;;;;5050427;28;19961;-68
2023/02/11 05:48:10;;;;;;;;;;;42.70;54.00;;;;;;5047757;28;19909;-67
2023/02/11 05:50:36;;;;;;;;;;;42.20;53.40;;;;;;5047817;28;19982;-64
2023/02/11 05:53:04;;;;;;;;;;;41.60;54.20;;;;;;5049112;28;19908;-63
2023/02/11 05:55:30;;;;;;;;;;;41.10;54.80;;;;;;5049430;28;19917;-66
2023/02/11 05:57:57;;;;;;;;;;;41.00;55.70;;;;;;5049802;28;19908;-65
2023/02/11 06:00:24;;;;;;;;;;;40.90;54.60;;;;;;5051617;28;20256;-64
2023/02/11 06:02:50;;;;;;;;;;;41.20;55.20;;;;;;5051535;28;20023;-65
2023/02/11 06:05:16;;;;;;;;;;;41.60;54.00;;;;;;5051254;28;19912;-66
2023/02/11 06:07:43;;;;;;;;;;;42.30;54.50;;;;;;5050728;28;19912;-65
2023/02/11 06:10:09;;;;;;;;;;;42.80;52.40;;;;;;5051198;28;20316;-63
2023/02/11 06:12:36;;;;;;;;;;;42.90;50.50;;;;;;5050685;28;20497;-62
2023/02/11 06:15:03;;;;;;;;;;;42.90;49.90;;;;;;5051008;28;19919;-62
2023/02/11 06:17:32;;;;;;;;;;;42.50;50.10;;;;;;5050972;28;19952;-62
2023/02/11 06:20:00;;;;;;;;;;;42.00;49.90;;;;;;5049757;28;20730;-68
2023/02/11 06:22:26;;;;;;;;;;;42.30;50.20;;;;;;5050469;28;20521;-66
2023/02/11 06:24:53;;;;;;;;;;;42.70;49.10;;;;;;5049362;28;19975;-66
2023/02/11 06:27:19;;;;;;;;;;;42.70;50.20;;;;;;5050954;28;19908;-62
2023/02/11 06:29:46;;;;;;;;;;;43.10;49.90;;;;;;5050510;28;19913;-65
2023/02/11 06:32:13;;;;;;;;;;;43.50;49.30;;;;;;5050225;28;20042;-63
2023/02/11 06:34:39;;;;;;;;;;;43.00;49.30;;;;;;5049801;28;20300;-61
2023/02/11 06:37:05;;;;;;;;;;;43.00;49.10;;;;;;5049317;28;19913;-65
2023/02/11 06:39:32;;;;;;;;;;;42.60;49.10;;;;;;5050615;28;19920;-66
2023/02/11 06:41:58;;;;;;;;;;;42.90;49.70;;;;;;5050131;28;19913;-63
2023/02/11 06:44:25;;;;;;;;;;;43.10;49.20;;;;;;5050254;28;20380;-62
2023/02/11 06:46:51;;;;;;;;;;;43.30;48.70;;;;;;5046477;28;20003;-68
2023/02/11 06:49:17;;;;;;;;;;;43.40;49.00;;;;;;5046777;28;20012;-62
2023/02/11 06:51:44;;;;;;;;;;;43.00;48.90;;;;;;5049622;28;19939;-66
2023/02/11 06:54:11;;;;;;;;;;;43.00;48.10;;;;;;5049132;28;19923;-66
2023/02/11 06:56:39;;;;;;;;;;;42.90;48.40;;;;;;5049157;28;20297;-62
2023/02/11 06:59:05;;;;;;;;;;;43.00;48.60;;;;;;5051280;28;19927;-59
2023/02/11 07:04:16;;;;;;;;;;;41.80;48.90;;;;;;5051253;28;19935;-62
2023/02/11 07:06:43;;;;;;;;;;;41.60;48.70;;;;;;5052693;28;20292;-64
2023/02/11 07:09:09;;;;;;;;;;;42.00;49.30;;;;;;5053072;28;19912;-64
2023/02/11 07:11:36;;;;;;;;;;;42.40;49.00;;;;;;5058984;28;19912;-65
2023/02/11 07:14:04;;;;;;;;;;;42.70;48.50;;;;;;5047087;28;19908;-64
2023/02/11 07:16:31;;;;;;;;;;;42.30;48.50;;;;;;5050848;28;19919;-63
2023/02/11 07:18:57;;;;;;;;;;;42.40;48.80;;;;;;5051036;28;19917;-64
2023/02/11 07:21:24;;;;;;;;;;;42.70;49.00;;;;;;5054012;28;19916;-64
2023/02/11 07:23:50;;;;;;;;;;;42.80;48.60;;;;;;5053513;28;20265;-63
2023/02/11 07:26:18;;;;;;;;;;;42.60;48.60;;;;;;5055058;28;20183;-62
2023/02/11 07:28:45;;;;;;;;;;;42.20;48.90;;;;;;5053488;28;19913;-66
2023/02/11 07:31:13;;;;;;;;;;;42.10;48.90;;;;;;5053869;28;19912;-65
2023/02/11 07:33:39;;;;;;;;;;;42.30;48.80;;;;;;4704136;28;10000395;-64
2023/02/11 07:36:07;;;;;;;;;;;42.30;48.70;;;;;;5047848;28;19939;-64
2023/02/11 07:38:33;;;;;;;;;;;42.10;48.70;;;;;;5048719;28;19912;-63
2023/02/11 07:41:04;;;;;;;;;;;41.90;48.60;;;;;;5055153;28;20026;-64
2023/02/11 07:43:31;;;;;;;;;;;41.80;48.80;;;;;;5054473;28;19948;-64
2023/02/11 07:45:57;;;;;;;;;;;41.80;49.40;;;;;;5053273;28;19908;-64
2023/02/11 07:48:24;;;;;;;;;;;41.90;49.10;;;;;;5046310;28;19917;-63
2023/02/11 07:50:50;;;;;;;;;;;40.90;49.60;;;;;;5051139;28;19940;-63
2023/02/11 07:53:16;;;;;;;;;;;39.80;50.00;;;;;;5048915;28;19908;-63
2023/02/11 07:55:43;;;;;;;;;;;39.10;50.80;;;;;;5059301;28;19917;-65
2023/02/11 07:58:09;;;;;;;;;;;38.70;50.80;;;;;;5056553;28;19913;-63
2023/02/11 08:00:35;;;;;;;;;;;38.20;51.20;;;;;;5045960;28;19920;-64
2023/02/11 08:03:02;;;;;;;;;;;38.40;51.10;;;;;;5053258;28;19927;-63
2023/02/11 08:05:29;;;;;;;;;;;38.60;51.40;;;;;;5052510;28;19916;-62
2023/02/11 08:07:55;;;;;;;;;;;38.50;51.40;;;;;;5048741;28;20269;-63
2023/02/11 08:10:22;;;;;;;;;;;38.20;51.50;;;;;;5046269;28;19913;-64
2023/02/11 08:12:48;;;;;;;;;;;37.80;51.90;;;;;;5045322;28;20428;-63
2023/02/11 08:15:14;;;;;;;;;;;37.80;53.30;;;;;;5046411;28;19973;-66
2023/02/11 08:17:41;;;;;;;;;;;37.90;57.10;;;;;;5045915;28;20002;-63
2023/02/11 08:20:07;;;;;;;;;;;37.70;64.50;;;;;;5045328;28;19973;-64
2023/02/11 08:22:34;;;;;;;;;;;37.60;66.90;;;;;;5044374;28;19948;-63
2023/02/11 08:25:00;;;;;;;;;;;37.70;68.00;;;;;;5048905;28;20411;-66
2023/02/11 08:27:27;;;;;;;;;;;37.50;69.00;;;;;;5041280;28;20427;-66
2023/02/11 08:29:53;;;;;;;;;;;37.20;69.90;;;;;;5048029;28;20011;-63
2023/02/11 08:32:20;;;;;;;;;;;36.60;70.80;;;;;;5030014;28;19920;-65
2023/02/11 08:34:49;;;;;;;;;;;36.00;72.00;;;;;;5045789;28;19919;-62
2023/02/11 08:37:16;;;;;;;;;;;35.30;73.00;;;;;;5039691;28;20019;-63
2023/02/11 08:39:43;;;;;;;;;;;34.70;74.70;;;;;;5051920;28;20014;-65
2023/02/11 08:42:09;;;;;;;;;;;34.10;76.20;;;;;;5049514;28;19919;-61
2023/02/11 08:44:36;;;;;;;;;;;33.60;77.70;;;;;;5045049;28;19920;-63
2023/02/11 08:47:02;;;;;;;;;;;33.50;78.40;;;;;;5044239;28;19966;-65
2023/02/11 08:49:30;;;;;;;;;;;33.10;79.60;;;;;;5051209;28;20003;-64
2023/02/11 08:52:01;;;;;;;;;;;33.00;79.40;;;;;;5050323;28;20034;-63
2023/02/11 08:54:27;;;;;;;;;;;32.80;79.70;;;;;;5043871;28;19916;-65
2023/02/11 08:56:53;;;;;;;;;;;32.60;80.30;;;;;;5049228;28;20463;-63
2023/02/11 08:59:20;;;;;;;;;;;32.50;80.20;;;;;;5047793;28;19912;-63
2023/02/11 09:01:46;;;;;;;;;;;32.20;81.20;;;;;;5045134;28;19912;-64
2023/02/11 09:04:13;;;;;;;;;;;32.20;81.00;;;;;;5053000;28;19959;-62
2023/02/11 09:06:40;;;;;;;;;;;32.10;81.10;;;;;;5045865;28;20318;-62
2023/02/11 09:09:09;;;;;;;;;;;32.10;81.80;;;;;;5051209;28;19918;-64
2023/02/11 09:11:35;;;;;;;;;;;31.90;82.50;;;;;;5047975;28;19912;-64
2023/02/11 09:14:03;;;;;;;;;;;31.80;82.20;;;;;;5050387;28;19919;-67
2023/02/11 09:16:30;;;;;;;;;;;31.60;83.10;;;;;;5051114;28;19939;-68
2023/02/11 09:18:57;;;;;;;;;;;31.50;82.90;;;;;;5046296;28;19920;-67
2023/02/11 09:21:24;;;;;;;;;;;31.20;84.00;;;;;;5050204;28;20572;-63
2023/02/11 09:23:50;;;;;;;;;;;30.90;85.00;;;;;;5051350;28;19912;-64
2023/02/11 09:26:19;;;;;;;;;;;30.80;85.60;;;;;;5050978;28;19908;-64
2023/02/11 09:28:45;;;;;;;;;;;30.80;85.60;;;;;;5032430;28;20550;-68
2023/02/11 09:31:13;;;;;;;;;;;30.70;86.00;;;;;;5049500;28;20032;-67
2023/02/11 09:33:46;;;;;;;;;;;30.50;86.70;;;;;;5045133;28;19913;-64
2023/02/11 09:36:14;;;;;;;;;;;30.50;87.00;;;;;;5045071;28;19913;-67
2023/02/11 09:38:41;;;;;;;;;;;30.40;87.40;;;;;;5048390;28;19920;-67
2023/02/11 09:41:27;;;;;;;;;;;30.40;87.60;;;;;;5045676;28;20343;-68
2023/02/11 09:43:56;;;;;;;;;;;30.20;87.80;;;;;;4953900;28;19922;-62
2023/02/11 09:46:23;;;;;;;;;;;30.10;88.40;;;;;;4955118;28;20032;-69
2023/02/11 09:48:51;;;;;;;;;;;29.90;88.70;;;;;;4954182;28;20315;-68
2023/02/11 09:51:33;;;;;;;;;;;29.90;89.90;;;;;;4955412;28;19914;-67
2023/02/11 09:54:03;;;;;;;;;;;29.70;90.10;;;;;;4952431;28;19961;-68
2023/02/11 09:56:30;;;;;;;;;;;29.70;90.20;;;;;;4955021;28;20028;-64
2023/02/11 09:58:56;;;;;;;;;;;29.60;90.40;;;;;;4709450;22;10001326;-65
2023/02/11 10:01:38;;;;;;;;;;;29.50;90.40;;;;;;5077806;28;20514;-63
2023/02/11 10:04:07;;;;;;;;;;;29.30;90.60;;;;;;5077848;28;20426;-65
2023/02/11 10:06:36;;;;;;;;;;;29.10;91.10;;;;;;5077384;28;19912;-64
2023/02/11 10:09:02;;;;;;;;;;;28.90;91.40;;;;;;5073539;28;20335;-65
2023/02/11 10:11:52;;;;;;;;;;;28.70;91.80;;;;;;5078581;28;20330;-64
2023/02/11 10:14:19;;;;;;;;;;;28.60;92.00;;;;;;5078483;28;19912;-64
2023/02/11 10:16:45;;;;;;;;;;;28.40;92.50;;;;;;5078125;28;19911;-63
2023/02/11 10:19:30;;;;;;;;;;;28.30;92.90;;;;;;5076373;28;19911;-65
2023/02/11 10:21:59;;;;;;;;;;;28.10;93.30;;;;;;5047936;28;19944;-61
2023/02/11 10:24:27;;;;;;;;;;;28.10;93.20;;;;;;5051359;28;19912;-62
2023/02/11 10:26:54;;;;;;;;;;;27.90;93.70;;;;;;5051250;28;19908;-66
2023/02/11 10:29:23;;;;;;;;;;;27.80;94.20;;;;;;5058135;28;20287;-65
2023/02/11 10:31:50;;;;;;;;;;;27.80;94.80;;;;;;5044239;28;20007;-65
2023/02/11 10:34:16;;;;;;;;;;;27.60;94.60;;;;;;5051571;28;19970;-62
2023/02/11 10:36:43;;;;;;;;;;;27.50;94.90;;;;;;5052742;28;20074;-66
2023/02/11 10:39:13;;;;;;;;;;;27.30;95.30;;;;;;5053650;28;19908;-62
2023/02/11 10:41:59;;;;;;;;;;;27.20;95.60;;;;;;5057913;28;19970;-67
2023/02/11 10:44:45;;;;;;;;;;;27.30;96.00;;;;;;5050205;28;19981;-62
2023/02/11 10:47:15;;;;;;;;;;;27.10;96.20;;;;;;5051030;28;20017;-62
2023/02/11 10:49:42;;;;;;;;;;;26.90;97.10;;;;;;5055898;28;19912;-65
2023/02/11 10:52:15;;;;;;;;;;;26.90;97.20;;;;;;5058153;28;19943;-62
2023/02/11 10:54:41;;;;;;;;;;;26.80;97.30;;;;;;5057824;28;19912;-69
2023/02/11 10:57:16;;;;;;;;;;;26.90;98.00;;;;;;5065655;28;19917;-62
2023/02/11 10:59:42;;;;;;;;;;;27.00;97.50;;;;;;5049362;28;20776;-62
2023/02/11 11:02:23;;;;;;;;;;;26.80;98.10;;;;;;5054848;28;19919;-65
2023/02/11 11:04:50;;;;;;;;;;;27.00;98.40;;;;;;5056420;28;19958;-62
2023/02/11 11:07:16;;;;;;;;;;;27.10;98.20;;;;;;5054477;28;19912;-66
2023/02/11 11:09:45;;;;;;;;;;;26.90;98.40;;;;;;5055686;28;19912;-68
2023/02/11 11:12:31;;;;;;;;;;;26.60;99.20;;;;;;5051754;28;19928;-63
2023/02/11 11:14:59;;;;;;;;;;;26.40;99.40;;;;;;5050974;28;20044;-64
2023/02/11 11:17:29;;;;;;;;;;;26.30;99.70;;;;;;5051102;28;19978;-64
2023/02/11 11:20:16;;;;;;;;;;;26.10;99.90;;;;;;5049414;28;19912;-62
2023/02/11 11:22:42;;;;;;;;;;;26.00;99.90;;;;;;4972354;28;19914;-64
2023/02/11 11:25:22;;;;;;;;;;;25.90;99.90;;;;;;4973710;28;20373;-66
2023/02/11 11:27:50;;;;;;;;;;;26.00;99.90;;;;;;4973299;28;19985;-64
2023/02/11 11:30:17;;;;;;;;;;;25.90;99.90;;;;;;4979451;28;19909;-64
2023/02/11 11:32:44;;;;;;;;;;;25.80;99.90;;;;;;4975205;28;19913;-63
2023/02/11 11:35:27;;;;;;;;;;;25.70;99.90;;;;;;4977861;28;19921;-64
2023/02/11 11:37:55;;;;;;;;;;;25.60;99.90;;;;;;4978541;28;20084;-67
2023/02/11 11:40:23;;;;;;;;;;;25.50;99.90;;;;;;4977367;28;20238;-66
2023/02/11 11:43:02;;;;;;;;;;;25.30;99.90;;;;;;4975058;28;19941;-66
2023/02/11 11:45:29;;;;;;;;;;;25.20;99.90;;;;;;4977899;28;20481;-62
2023/02/11 11:47:58;;;;;;;;;;;25.10;99.90;;;;;;4980256;28;19973;-63
2023/02/11 11:50:26;;;;;;;;;;;25.00;99.90;;;;;;4979586;28;20381;-62
2023/02/11 11:52:59;;;;;;;;;;;24.90;99.90;;;;;;4982530;28;20456;-61
2023/02/11 11:55:31;;;;;;;;;;;25.10;99.90;;;;;;4981248;28;20374;-68
2023/02/11 11:57:57;;;;;;;;;;;25.10;99.90;;;;;;4978817;28;19918;-62
2023/02/11 12:00:44;;;;;;;;;;;25.10;99.90;;;;;;5041815;28;19920;-67
2023/02/11 12:03:10;;;;;;;;;;;25.00;99.90;;;;;;5054899;28;19924;-65
2023/02/11 12:05:51;;;;;;;;;;;25.00;99.90;;;;;;5065245;28;20571;-62
2023/02/11 12:08:36;;;;;;;;;;;25.00;99.90;;;;;;5056103;28;19912;-63
2023/02/11 12:11:11;;;;;;;;;;;24.90;99.90;;;;;;5063869;28;19912;-67
2023/02/11 12:13:46;;;;;;;;;;;24.90;99.90;;;;;;5056565;28;19923;-64
2023/02/11 12:16:18;;;;;;;;;;;24.70;99.90;;;;;;5064369;28;19920;-62
2023/02/11 12:18:51;;;;;;;;;;;24.70;99.90;;;;;;5058332;28;19935;-64
2023/02/11 12:21:35;;;;;;;;;;;24.70;99.90;;;;;;5064756;28;19928;-63
2023/02/11 12:24:11;;;;;;;;;;;24.70;99.90;;;;;;5063992;28;19912;-61
2023/02/11 12:26:43;;;;;;;;;;;24.70;99.90;;;;;;5064292;28;19912;-61
2023/02/11 12:29:28;;;;;;;;;;;24.60;99.90;;;;;;5064265;28;20269;-63
2023/02/11 12:32:01;;;;;;;;;;;24.40;99.90;;;;;;5062933;28;19944;-63
2023/02/11 12:34:27;;;;;;;;;;;24.40;99.90;;;;;;5066754;28;19962;-65
2023/02/11 12:37:02;;;;;;;;;;;24.30;99.90;;;;;;5066768;28;19915;-61
2023/02/11 12:39:28;;;;;;;;;;;24.20;99.90;;;;;;5066952;28;20054;-62
2023/02/11 12:44:42;;;;;;;;;;;24.10;99.90;;;;;;5060392;28;19927;-64
2023/02/11 12:47:20;;;;;;;;;;;24.10;99.90;;;;;;5066809;28;19908;-62
2023/02/11 12:50:09;;;;;;;;;;;24.30;99.90;;;;;;5065327;28;20401;-63
2023/02/11 12:52:55;;;;;;;;;;;24.40;99.90;;;;;;5059022;28;20340;-65
2023/02/11 12:55:23;;;;;;;;;;;24.30;99.90;;;;;;5066537;28;19909;-62
2023/02/11 12:57:51;;;;;;;;;;;24.30;99.90;;;;;;5066402;28;20349;-64
2023/02/11 13:00:23;;;;;;;;;;;24.20;99.90;;;;;;5067830;28;20280;-63
2023/02/11 13:02:55;;;;;;;;;;;24.20;99.90;;;;;;5061467;28;20364;-62
2023/02/11 13:05:42;;;;;;;;;;;24.10;99.90;;;;;;5068239;28;19931;-64
2023/02/11 13:08:31;;;;;;;;;;;24.00;99.90;;;;;;5069289;28;20314;-64
2023/02/11 13:11:00;;;;;;;;;;;23.80;99.90;;;;;;5056998;28;20022;-63
2023/02/11 13:13:27;;;;;;;;;;;23.80;99.90;;;;;;5069984;28;20258;-64
2023/02/11 13:15:53;;;;;;;;;;;23.70;99.90;;;;;;5069733;28;19908;-63
2023/02/11 13:18:26;;;;;;;;;;;23.50;99.90;;;;;;5069911;28;19908;-63
2023/02/11 13:21:02;;;;;;;;;;;23.50;99.90;;;;;;5069759;28;19908;-65
2023/02/11 13:23:34;;;;;;;;;;;23.40;99.90;;;;;;5069966;28;19916;-67
2023/02/11 13:26:16;;;;;;;;;;;23.40;99.90;;;;;;5069619;28;19908;-64
2023/02/11 13:28:52;;;;;;;;;;;23.20;99.90;;;;;;5069288;28;20257;-63
2023/02/11 13:31:19;;;;;;;;;;;23.10;99.90;;;;;;5069532;28;20402;-65
2023/02/11 13:33:48;;;;;;;;;;;23.00;99.90;;;;;;5069758;28;19908;-61
2023/02/11 13:36:16;;;;;;;;;;;22.90;99.90;;;;;;5069546;28;19911;-63
2023/02/11 13:38:51;;;;;;;;;;;22.70;99.90;;;;;;5068845;28;20360;-61
2023/02/11 13:41:30;;;;;;;;;;;22.70;99.90;;;;;;5069280;28;20014;-64
2023/02/11 13:44:19;;;;;;;;;;;22.50;99.90;;;;;;5069646;28;19923;-62
2023/02/11 13:47:03;;;;;;;;;;;22.50;99.90;;;;;;5065469;28;19909;-64
2023/02/11 13:49:35;;;;;;;;;;;22.50;99.90;;;;;;5066280;28;19989;-66
2023/02/11 13:52:04;;;;;;;;;;;22.50;99.90;;;;;;5061341;28;20276;-62
2023/02/11 13:54:32;;;;;;;;;;;22.30;99.90;;;;;;5067587;28;19947;-64
2023/02/11 13:57:28;;;;;;;;;;;22.20;99.90;;;;;;5068637;28;19908;-63
2023/02/11 13:59:58;;;;;;;;;;;22.20;99.90;;;;;;5025424;28;19925;-64
2023/02/11 14:11:01;;;;;;;;;;;21.90;99.90;;;;;;5025701;28;19987;-62
2023/02/11 14:13:31;;;;;;;;;;;21.80;99.90;;;;;;5026528;28;20431;-64
2023/02/11 14:16:04;;;;;;;;;;;21.80;99.90;;;;;;5026134;28;19917;-62
2023/02/11 14:18:52;;;;;;;;;;;21.90;99.90;;;;;;5026101;28;19916;-64
2023/02/11 14:21:20;;;;;;;;;;;22.20;99.90;;;;;;5022048;28;19917;-62
2023/02/11 14:23:47;;;;;;;;;;;22.10;99.90;;;;;;5026073;28;19960;-62
2023/02/11 14:26:19;;;;;;;;;;;22.20;99.90;;;;;;5025838;28;19951;-63
2023/02/11 14:28:51;;;;;;;;;;;22.10;99.90;;;;;;5025833;28;19943;-63
2023/02/11 14:31:21;;;;;;;;;;;22.00;99.90;;;;;;5025834;28;19917;-63
2023/02/11 14:33:54;;;;;;;;;;;22.20;99.90;;;;;;5025800;28;19917;-62
2023/02/11 14:36:42;;;;;;;;;;;22.20;99.90;;;;;;5042727;28;19908;-66
2023/02/11 14:39:27;;;;;;;;;;;22.10;99.90;;;;;;5062116;28;19912;-63
2023/02/11 14:41:53;;;;;;;;;;;22.00;99.90;;;;;;5061863;28;19912;-63
2023/02/11 14:44:22;;;;;;;;;;;21.90;99.90;;;;;;5051024;28;19927;-63
2023/02/11 14:46:51;;;;;;;;;;;21.70;99.90;;;;;;5061050;28;20108;-65